Bookmark and Share
Track history (hours):
 

Kamenitza

Last reported at 2012-Jun-10 19:30 UTC. Time now 2014-Apr-19 17:13 UTC.
Position N 33°19' E 030°16'.
Warning: this ship's position is years out of date!

Length 185 m; draft 10.5 m.

Type: Cargo ship. MMSI: 207083000.

NotesDate/timePositionNaut miles runAvg speedWind from/ knotsBaromVisibWave heightAir tempDewpointWater temp
2012-Jun-10 19:30N 33°19' E 030°16'206 9.8
2012-Jun-09 22:27N 35°51' E 027°28'1011.6
2012-Jun-09 21:33N 35°59' E 027°20'1111.4
2012-Jun-09 20:33N 36°07' E 027°10'1211.3
2012-Jun-09 19:31N 36°16' E 026°60'1111.3
2012-Jun-09 18:33N 36°24' E 026°51'1111.2
2012-Jun-09 17:33N 36°32' E 026°42'1110.9
2012-Jun-09 16:33N 36°40' E 026°32'1111.3
2012-Jun-09 15:33N 36°48' E 026°23'1110.9
2012-Jun-09 14:32N 36°57' E 026°14'1111.1
2012-Jun-09 13:33N 37°06' E 026°07'1211.8
2012-Jun-09 12:33N 37°17' E 026°01'1211.6
2012-Jun-09 11:33N 37°28' E 025°56'1111.3
2012-Jun-09 10:35N 37°38' E 025°51'1211.7
2012-Jun-09 09:33N 37°49' E 025°45'1211.7
2012-Jun-09 08:33N 38°01' E 025°42'1211.7
2012-Jun-09 07:33N 38°12' E 025°42'1211.8
2012-Jun-09 06:33N 38°24' E 025°42'1211.7
2012-Jun-09 05:33N 38°36' E 025°42'1111.5
2012-Jun-09 04:36N 38°47' E 025°42'4611.3
2012-Jun-09 00:32N 39°33' E 025°42'2211.0
2012-Jun-08 22:33N 39°53' E 025°52'  

Dump ship's entire track history

sailing weather and tide predictions

Kamenitza — LZFW — position and weather